sensor_id;sensor_type;location;lat;lon;timestamp;P1;durP1;ratioP1;P2;durP2;ratioP2
9904;SDS011;4991;43.566;27.820;2022-08-25T00:01:10;61.83;;;12.10;;
9904;SDS011;4991;43.566;27.820;2022-08-25T00:03:38;59.67;;;11.57;;
9904;SDS011;4991;43.566;27.820;2022-08-25T00:06:05;45.30;;;9.80;;
9904;SDS011;4991;43.566;27.820;2022-08-25T00:08:32;53.23;;;11.53;;
9904;SDS011;4991;43.566;27.820;2022-08-25T00:11:02;61.30;;;12.17;;
9904;SDS011;4991;43.566;27.820;2022-08-25T00:13:33;54.53;;;10.80;;
9904;SDS011;4991;43.566;27.820;2022-08-25T00:15:59;58.50;;;11.43;;
9904;SDS011;4991;43.566;27.820;2022-08-25T00:18:25;44.80;;;10.50;;
9904;SDS011;4991;43.566;27.820;2022-08-25T00:20:51;52.50;;;10.83;;
9904;SDS011;4991;43.566;27.820;2022-08-25T00:23:17;53.87;;;9.90;;
9904;SDS011;4991;43.566;27.820;2022-08-25T00:25:43;48.63;;;9.63;;
9904;SDS011;4991;43.566;27.820;2022-08-25T00:28:09;56.60;;;10.43;;
9904;SDS011;4991;43.566;27.820;2022-08-25T00:30:34;56.03;;;9.87;;
9904;SDS011;4991;43.566;27.820;2022-08-25T00:33:01;48.87;;;11.03;;
9904;SDS011;4991;43.566;27.820;2022-08-25T00:35:28;58.03;;;10.40;;
9904;SDS011;4991;43.566;27.820;2022-08-25T00:37:54;38.40;;;8.77;;
9904;SDS011;4991;43.566;27.820;2022-08-25T00:40:20;45.47;;;9.83;;
9904;SDS011;4991;43.566;27.820;2022-08-25T00:42:47;46.03;;;11.47;;
9904;SDS011;4991;43.566;27.820;2022-08-25T00:45:13;58.07;;;11.80;;
9904;SDS011;4991;43.566;27.820;2022-08-25T00:47:39;51.97;;;11.30;;
9904;SDS011;4991;43.566;27.820;2022-08-25T00:50:06;57.80;;;9.37;;
9904;SDS011;4991;43.566;27.820;2022-08-25T00:52:37;53.47;;;10.07;;
9904;SDS011;4991;43.566;27.820;2022-08-25T00:55:10;41.73;;;8.40;;
9904;SDS011;4991;43.566;27.820;2022-08-25T00:57:44;43.03;;;9.17;;
9904;SDS011;4991;43.566;27.820;2022-08-25T01:02:43;49.80;;;9.53;;
9904;SDS011;4991;43.566;27.820;2022-08-25T01:05:09;47.20;;;9.10;;
9904;SDS011;4991;43.566;27.820;2022-08-25T01:07:35;46.60;;;9.40;;
9904;SDS011;4991;43.566;27.820;2022-08-25T01:10:01;48.07;;;10.50;;
9904;SDS011;4991;43.566;27.820;2022-08-25T01:12:29;45.83;;;10.47;;
9904;SDS011;4991;43.566;27.820;2022-08-25T01:14:54;47.50;;;9.47;;
9904;SDS011;4991;43.566;27.820;2022-08-25T01:17:21;47.93;;;9.83;;
9904;SDS011;4991;43.566;27.820;2022-08-25T01:19:46;39.03;;;8.30;;
9904;SDS011;4991;43.566;27.820;2022-08-25T01:22:12;44.07;;;9.23;;
9904;SDS011;4991;43.566;27.820;2022-08-25T01:24:46;45.43;;;8.93;;
9904;SDS011;4991;43.566;27.820;2022-08-25T01:27:18;46.73;;;8.20;;
9904;SDS011;4991;43.566;27.820;2022-08-25T01:29:44;49.97;;;9.50;;
9904;SDS011;4991;43.566;27.820;2022-08-25T01:32:10;45.07;;;10.23;;
9904;SDS011;4991;43.566;27.820;2022-08-25T01:34:39;36.43;;;9.07;;
9904;SDS011;4991;43.566;27.820;2022-08-25T01:37:06;38.90;;;8.53;;
9904;SDS011;4991;43.566;27.820;2022-08-25T01:39:33;40.43;;;8.20;;
9904;SDS011;4991;43.566;27.820;2022-08-25T01:44:29;41.00;;;8.13;;
9904;SDS011;4991;43.566;27.820;2022-08-25T01:46:55;47.97;;;8.73;;
9904;SDS011;4991;43.566;27.820;2022-08-25T01:49:21;46.27;;;8.97;;
9904;SDS011;4991;43.566;27.820;2022-08-25T01:51:50;43.40;;;8.60;;
9904;SDS011;4991;43.566;27.820;2022-08-25T01:54:19;43.53;;;9.07;;
9904;SDS011;4991;43.566;27.820;2022-08-25T01:56:45;41.93;;;8.87;;
9904;SDS011;4991;43.566;27.820;2022-08-25T01:59:13;49.73;;;9.27;;
9904;SDS011;4991;43.566;27.820;2022-08-25T02:01:40;38.33;;;8.50;;
9904;SDS011;4991;43.566;27.820;2022-08-25T02:04:06;47.43;;;8.13;;
9904;SDS011;4991;43.566;27.820;2022-08-25T02:06:32;35.03;;;8.63;;
9904;SDS011;4991;43.566;27.820;2022-08-25T02:09:00;38.97;;;8.10;;
9904;SDS011;4991;43.566;27.820;2022-08-25T02:11:30;43.17;;;9.13;;
9904;SDS011;4991;43.566;27.820;2022-08-25T02:13:56;34.33;;;8.87;;
9904;SDS011;4991;43.566;27.820;2022-08-25T02:16:24;49.97;;;9.50;;
9904;SDS011;4991;43.566;27.820;2022-08-25T02:18:52;33.23;;;8.90;;
9904;SDS011;4991;43.566;27.820;2022-08-25T02:21:19;39.93;;;7.90;;
9904;SDS011;4991;43.566;27.820;2022-08-25T02:23:45;38.40;;;7.70;;
9904;SDS011;4991;43.566;27.820;2022-08-25T02:26:11;42.03;;;8.37;;
9904;SDS011;4991;43.566;27.820;2022-08-25T02:28:41;39.07;;;8.10;;
9904;SDS011;4991;43.566;27.820;2022-08-25T02:31:08;45.33;;;9.20;;
9904;SDS011;4991;43.566;27.820;2022-08-25T02:33:34;42.63;;;9.17;;
9904;SDS011;4991;43.566;27.820;2022-08-25T02:36:00;42.17;;;9.23;;
9904;SDS011;4991;43.566;27.820;2022-08-25T02:38:26;41.70;;;9.17;;
9904;SDS011;4991;43.566;27.820;2022-08-25T02:40:54;27.47;;;8.40;;
9904;SDS011;4991;43.566;27.820;2022-08-25T02:43:21;46.33;;;9.27;;
9904;SDS011;4991;43.566;27.820;2022-08-25T02:45:47;37.00;;;8.67;;
9904;SDS011;4991;43.566;27.820;2022-08-25T02:48:13;37.87;;;8.63;;
9904;SDS011;4991;43.566;27.820;2022-08-25T02:50:40;30.07;;;7.00;;
9904;SDS011;4991;43.566;27.820;2022-08-25T02:53:11;40.37;;;8.23;;
9904;SDS011;4991;43.566;27.820;2022-08-25T02:55:37;37.37;;;8.03;;
9904;SDS011;4991;43.566;27.820;2022-08-25T02:58:02;40.57;;;8.77;;
9904;SDS011;4991;43.566;27.820;2022-08-25T03:00:28;36.03;;;8.67;;
9904;SDS011;4991;43.566;27.820;2022-08-25T03:02:54;41.83;;;7.20;;
9904;SDS011;4991;43.566;27.820;2022-08-25T03:05:20;32.73;;;8.03;;
9904;SDS011;4991;43.566;27.820;2022-08-25T03:07:46;33.03;;;8.30;;
9904;SDS011;4991;43.566;27.820;2022-08-25T03:10:13;30.20;;;7.43;;
9904;SDS011;4991;43.566;27.820;2022-08-25T03:12:40;38.60;;;8.70;;
9904;SDS011;4991;43.566;27.820;2022-08-25T03:15:06;37.80;;;8.13;;
9904;SDS011;4991;43.566;27.820;2022-08-25T03:17:37;40.50;;;9.07;;
9904;SDS011;4991;43.566;27.820;2022-08-25T03:20:04;39.87;;;9.53;;
9904;SDS011;4991;43.566;27.820;2022-08-25T03:22:31;31.03;;;8.00;;
9904;SDS011;4991;43.566;27.820;2022-08-25T03:24:57;41.70;;;9.53;;
9904;SDS011;4991;43.566;27.820;2022-08-25T03:27:43;41.50;;;8.33;;
9904;SDS011;4991;43.566;27.820;2022-08-25T03:30:10;38.40;;;7.90;;
9904;SDS011;4991;43.566;27.820;2022-08-25T03:32:38;38.83;;;8.30;;
9904;SDS011;4991;43.566;27.820;2022-08-25T03:35:04;39.73;;;9.00;;
9904;SDS011;4991;43.566;27.820;2022-08-25T03:37:30;36.47;;;7.90;;
9904;SDS011;4991;43.566;27.820;2022-08-25T03:39:56;33.97;;;7.93;;
9904;SDS011;4991;43.566;27.820;2022-08-25T03:42:21;47.80;;;7.93;;
9904;SDS011;4991;43.566;27.820;2022-08-25T03:44:48;38.70;;;8.70;;
9904;SDS011;4991;43.566;27.820;2022-08-25T03:47:14;32.00;;;7.70;;
9904;SDS011;4991;43.566;27.820;2022-08-25T03:49:40;45.17;;;7.83;;
9904;SDS011;4991;43.566;27.820;2022-08-25T03:52:06;43.40;;;8.37;;
9904;SDS011;4991;43.566;27.820;2022-08-25T03:54:31;36.23;;;8.23;;
9904;SDS011;4991;43.566;27.820;2022-08-25T03:56:57;35.07;;;7.70;;
9904;SDS011;4991;43.566;27.820;2022-08-25T03:59:22;35.97;;;8.33;;
9904;SDS011;4991;43.566;27.820;2022-08-25T04:01:48;38.43;;;8.40;;
9904;SDS011;4991;43.566;27.820;2022-08-25T04:04:15;42.67;;;7.30;;
9904;SDS011;4991;43.566;27.820;2022-08-25T04:06:41;39.00;;;8.20;;
9904;SDS011;4991;43.566;27.820;2022-08-25T04:09:09;34.53;;;6.80;;
9904;SDS011;4991;43.566;27.820;2022-08-25T04:11:35;32.97;;;7.37;;
9904;SDS011;4991;43.566;27.820;2022-08-25T04:14:02;34.63;;;8.10;;
9904;SDS011;4991;43.566;27.820;2022-08-25T04:16:30;30.07;;;7.30;;
9904;SDS011;4991;43.566;27.820;2022-08-25T04:18:59;39.30;;;8.77;;
9904;SDS011;4991;43.566;27.820;2022-08-25T04:21:26;34.47;;;8.30;;
9904;SDS011;4991;43.566;27.820;2022-08-25T04:23:53;25.43;;;7.30;;
9904;SDS011;4991;43.566;27.820;2022-08-25T04:26:24;29.23;;;7.20;;
9904;SDS011;4991;43.566;27.820;2022-08-25T04:28:53;34.00;;;8.00;;
9904;SDS011;4991;43.566;27.820;2022-08-25T04:31:20;34.80;;;7.20;;
9904;SDS011;4991;43.566;27.820;2022-08-25T04:33:46;30.97;;;7.10;;
9904;SDS011;4991;43.566;27.820;2022-08-25T04:36:12;26.60;;;6.73;;
9904;SDS011;4991;43.566;27.820;2022-08-25T04:38:39;31.60;;;7.73;;
9904;SDS011;4991;43.566;27.820;2022-08-25T04:41:06;34.77;;;7.40;;
9904;SDS011;4991;43.566;27.820;2022-08-25T04:43:34;36.17;;;7.83;;
9904;SDS011;4991;43.566;27.820;2022-08-25T04:46:11;26.97;;;7.23;;
9904;SDS011;4991;43.566;27.820;2022-08-25T04:48:42;37.10;;;8.13;;
9904;SDS011;4991;43.566;27.820;2022-08-25T04:51:09;33.47;;;7.77;;
9904;SDS011;4991;43.566;27.820;2022-08-25T04:53:38;25.13;;;7.13;;
9904;SDS011;4991;43.566;27.820;2022-08-25T04:56:06;30.97;;;8.30;;
9904;SDS011;4991;43.566;27.820;2022-08-25T04:58:34;30.00;;;7.33;;
9904;SDS011;4991;43.566;27.820;2022-08-25T05:01:04;41.93;;;8.63;;
9904;SDS011;4991;43.566;27.820;2022-08-25T05:03:35;31.00;;;7.00;;
9904;SDS011;4991;43.566;27.820;2022-08-25T05:06:02;25.23;;;6.97;;
9904;SDS011;4991;43.566;27.820;2022-08-25T05:08:29;31.45;;;6.18;;
9904;SDS011;4991;43.566;27.820;2022-08-25T05:10:55;22.27;;;6.50;;
9904;SDS011;4991;43.566;27.820;2022-08-25T05:13:22;33.80;;;6.80;;
9904;SDS011;4991;43.566;27.820;2022-08-25T05:15:56;23.27;;;6.70;;
9904;SDS011;4991;43.566;27.820;2022-08-25T05:18:24;28.93;;;6.53;;
9904;SDS011;4991;43.566;27.820;2022-08-25T05:20:52;31.83;;;6.88;;
9904;SDS011;4991;43.566;27.820;2022-08-25T05:23:19;31.55;;;6.70;;
9904;SDS011;4991;43.566;27.820;2022-08-25T05:25:46;22.25;;;6.57;;
9904;SDS011;4991;43.566;27.820;2022-08-25T05:28:12;26.05;;;6.70;;
9904;SDS011;4991;43.566;27.820;2022-08-25T05:30:41;24.65;;;8.23;;
9904;SDS011;4991;43.566;27.820;2022-08-25T05:33:08;28.77;;;6.22;;
9904;SDS011;4991;43.566;27.820;2022-08-25T05:35:35;21.27;;;5.55;;
9904;SDS011;4991;43.566;27.820;2022-08-25T05:38:01;32.28;;;6.13;;
9904;SDS011;4991;43.566;27.820;2022-08-25T05:40:28;15.82;;;6.50;;
9904;SDS011;4991;43.566;27.820;2022-08-25T05:42:54;29.10;;;6.75;;
9904;SDS011;4991;43.566;27.820;2022-08-25T05:45:20;25.77;;;6.22;;
9904;SDS011;4991;43.566;27.820;2022-08-25T05:47:46;31.20;;;7.30;;
9904;SDS011;4991;43.566;27.820;2022-08-25T05:50:13;27.55;;;6.72;;
9904;SDS011;4991;43.566;27.820;2022-08-25T05:52:38;18.65;;;6.90;;
9904;SDS011;4991;43.566;27.820;2022-08-25T05:55:04;16.80;;;6.15;;
9904;SDS011;4991;43.566;27.820;2022-08-25T05:57:31;25.92;;;6.78;;
9904;SDS011;4991;43.566;27.820;2022-08-25T05:59:57;26.13;;;5.88;;
9904;SDS011;4991;43.566;27.820;2022-08-25T06:02:23;21.83;;;6.32;;
9904;SDS011;4991;43.566;27.820;2022-08-25T06:05:07;19.88;;;5.35;;
9904;SDS011;4991;43.566;27.820;2022-08-25T06:07:42;23.90;;;6.13;;
9904;SDS011;4991;43.566;27.820;2022-08-25T06:10:09;27.83;;;6.90;;
9904;SDS011;4991;43.566;27.820;2022-08-25T06:12:36;27.98;;;6.57;;
9904;SDS011;4991;43.566;27.820;2022-08-25T06:15:03;22.85;;;8.20;;
9904;SDS011;4991;43.566;27.820;2022-08-25T06:17:30;29.02;;;6.85;;
9904;SDS011;4991;43.566;27.820;2022-08-25T06:19:56;28.23;;;7.22;;
9904;SDS011;4991;43.566;27.820;2022-08-25T06:22:22;13.40;;;5.10;;
9904;SDS011;4991;43.566;27.820;2022-08-25T06:24:50;24.40;;;6.20;;
9904;SDS011;4991;43.566;27.820;2022-08-25T06:27:16;13.27;;;5.60;;
9904;SDS011;4991;43.566;27.820;2022-08-25T06:29:41;21.58;;;5.40;;
9904;SDS011;4991;43.566;27.820;2022-08-25T06:32:07;29.38;;;6.82;;
9904;SDS011;4991;43.566;27.820;2022-08-25T06:34:33;24.02;;;6.75;;
9904;SDS011;4991;43.566;27.820;2022-08-25T06:36:58;23.58;;;5.28;;
9904;SDS011;4991;43.566;27.820;2022-08-25T06:39:24;20.45;;;6.30;;
9904;SDS011;4991;43.566;27.820;2022-08-25T06:41:51;21.45;;;5.03;;
9904;SDS011;4991;43.566;27.820;2022-08-25T06:44:17;18.45;;;5.43;;
9904;SDS011;4991;43.566;27.820;2022-08-25T06:46:43;15.52;;;4.68;;
9904;SDS011;4991;43.566;27.820;2022-08-25T06:49:08;22.08;;;5.60;;
9904;SDS011;4991;43.566;27.820;2022-08-25T06:51:34;27.10;;;6.20;;
9904;SDS011;4991;43.566;27.820;2022-08-25T06:54:00;22.38;;;5.50;;
9904;SDS011;4991;43.566;27.820;2022-08-25T06:56:26;17.55;;;5.47;;
9904;SDS011;4991;43.566;27.820;2022-08-25T06:58:51;20.95;;;5.68;;
9904;SDS011;4991;43.566;27.820;2022-08-25T07:01:21;17.20;;;5.97;;
9904;SDS011;4991;43.566;27.820;2022-08-25T07:03:51;15.63;;;5.63;;
9904;SDS011;4991;43.566;27.820;2022-08-25T07:06:21;16.77;;;5.07;;
9904;SDS011;4991;43.566;27.820;2022-08-25T07:08:48;15.90;;;5.07;;
9904;SDS011;4991;43.566;27.820;2022-08-25T07:11:15;25.52;;;5.65;;
9904;SDS011;4991;43.566;27.820;2022-08-25T07:13:41;22.00;;;5.45;;
9904;SDS011;4991;43.566;27.820;2022-08-25T07:16:07;13.98;;;5.18;;
9904;SDS011;4991;43.566;27.820;2022-08-25T07:18:33;21.83;;;5.47;;
9904;SDS011;4991;43.566;27.820;2022-08-25T07:20:59;22.83;;;4.57;;
9904;SDS011;4991;43.566;27.820;2022-08-25T07:23:25;20.40;;;5.50;;
9904;SDS011;4991;43.566;27.820;2022-08-25T07:25:52;18.40;;;5.03;;
9904;SDS011;4991;43.566;27.820;2022-08-25T07:28:18;14.00;;;5.20;;
9904;SDS011;4991;43.566;27.820;2022-08-25T07:30:46;21.75;;;5.63;;
9904;SDS011;4991;43.566;27.820;2022-08-25T07:33:11;24.35;;;5.95;;
9904;SDS011;4991;43.566;27.820;2022-08-25T07:35:37;19.83;;;5.50;;
9904;SDS011;4991;43.566;27.820;2022-08-25T07:38:04;20.35;;;5.35;;
9904;SDS011;4991;43.566;27.820;2022-08-25T07:40:32;19.45;;;5.63;;
9904;SDS011;4991;43.566;27.820;2022-08-25T07:43:00;22.17;;;5.68;;
9904;SDS011;4991;43.566;27.820;2022-08-25T07:45:33;24.42;;;6.47;;
9904;SDS011;4991;43.566;27.820;2022-08-25T07:48:02;26.25;;;5.28;;
9904;SDS011;4991;43.566;27.820;2022-08-25T07:50:30;17.15;;;4.30;;
9904;SDS011;4991;43.566;27.820;2022-08-25T07:52:57;12.50;;;5.00;;
9904;SDS011;4991;43.566;27.820;2022-08-25T07:55:23;12.65;;;4.43;;
9904;SDS011;4991;43.566;27.820;2022-08-25T07:57:50;15.85;;;4.38;;
9904;SDS011;4991;43.566;27.820;2022-08-25T08:00:17;17.83;;;4.55;;
9904;SDS011;4991;43.566;27.820;2022-08-25T08:02:43;17.02;;;4.20;;
9904;SDS011;4991;43.566;27.820;2022-08-25T08:05:09;13.50;;;4.22;;
9904;SDS011;4991;43.566;27.820;2022-08-25T08:07:36;17.48;;;4.53;;
9904;SDS011;4991;43.566;27.820;2022-08-25T08:10:03;14.93;;;5.07;;
9904;SDS011;4991;43.566;27.820;2022-08-25T08:12:30;16.75;;;4.75;;
9904;SDS011;4991;43.566;27.820;2022-08-25T08:14:57;23.83;;;4.75;;
9904;SDS011;4991;43.566;27.820;2022-08-25T08:17:23;16.60;;;4.50;;
9904;SDS011;4991;43.566;27.820;2022-08-25T08:19:50;14.07;;;4.95;;
9904;SDS011;4991;43.566;27.820;2022-08-25T08:22:16;15.10;;;4.80;;
9904;SDS011;4991;43.566;27.820;2022-08-25T08:24:43;12.20;;;4.53;;
9904;SDS011;4991;43.566;27.820;2022-08-25T08:27:10;18.60;;;4.32;;
9904;SDS011;4991;43.566;27.820;2022-08-25T08:29:38;24.40;;;5.05;;
9904;SDS011;4991;43.566;27.820;2022-08-25T08:32:05;15.10;;;4.82;;
9904;SDS011;4991;43.566;27.820;2022-08-25T08:34:34;17.20;;;4.40;;
9904;SDS011;4991;43.566;27.820;2022-08-25T08:37:00;18.40;;;5.53;;
9904;SDS011;4991;43.566;27.820;2022-08-25T08:39:27;12.13;;;4.50;;
9904;SDS011;4991;43.566;27.820;2022-08-25T08:42:11;21.55;;;4.97;;
9904;SDS011;4991;43.566;27.820;2022-08-25T08:52:54;12.73;;;4.35;;
9904;SDS011;4991;43.566;27.820;2022-08-25T08:59:04;12.23;;;4.65;;
9904;SDS011;4991;43.566;27.820;2022-08-25T09:01:29;12.85;;;3.80;;
9904;SDS011;4991;43.566;27.820;2022-08-25T09:04:04;12.65;;;4.00;;
9904;SDS011;4991;43.566;27.820;2022-08-25T09:06:43;11.63;;;4.32;;
9904;SDS011;4991;43.566;27.820;2022-08-25T09:09:11;17.45;;;4.43;;
9904;SDS011;4991;43.566;27.820;2022-08-25T09:11:45;10.43;;;3.55;;
9904;SDS011;4991;43.566;27.820;2022-08-25T09:20:03;16.35;;;4.63;;
9904;SDS011;4991;43.566;27.820;2022-08-25T09:22:56;20.70;;;5.43;;
9904;SDS011;4991;43.566;27.820;2022-08-25T09:28:07;15.27;;;4.43;;
9904;SDS011;4991;43.566;27.820;2022-08-25T09:31:02;19.85;;;7.10;;
9904;SDS011;4991;43.566;27.820;2022-08-25T09:33:33;15.73;;;4.95;;
9904;SDS011;4991;43.566;27.820;2022-08-25T09:35:59;30.35;;;5.10;;
9904;SDS011;4991;43.566;27.820;2022-08-25T09:38:25;20.73;;;5.30;;
9904;SDS011;4991;43.566;27.820;2022-08-25T09:40:54;21.85;;;4.90;;
9904;SDS011;4991;43.566;27.820;2022-08-25T09:43:23;32.72;;;6.22;;
9904;SDS011;4991;43.566;27.820;2022-08-25T09:46:12;16.95;;;5.60;;
9904;SDS011;4991;43.566;27.820;2022-08-25T09:48:48;30.48;;;5.13;;
9904;SDS011;4991;43.566;27.820;2022-08-25T09:51:28;14.88;;;4.60;;
9904;SDS011;4991;43.566;27.820;2022-08-25T09:56:47;23.30;;;5.47;;
9904;SDS011;4991;43.566;27.820;2022-08-25T09:59:20;25.42;;;5.43;;
9904;SDS011;4991;43.566;27.820;2022-08-25T10:02:00;29.23;;;5.55;;
9904;SDS011;4991;43.566;27.820;2022-08-25T10:04:45;28.98;;;5.90;;
9904;SDS011;4991;43.566;27.820;2022-08-25T10:10:01;31.83;;;6.60;;
9904;SDS011;4991;43.566;27.820;2022-08-25T10:15:24;28.85;;;5.88;;
9904;SDS011;4991;43.566;27.820;2022-08-25T10:18:42;25.60;;;5.93;;
9904;SDS011;4991;43.566;27.820;2022-08-25T10:23:47;39.85;;;6.82;;
9904;SDS011;4991;43.566;27.820;2022-08-25T10:29:30;28.70;;;5.97;;
9904;SDS011;4991;43.566;27.820;2022-08-25T10:32:02;32.78;;;6.25;;
9904;SDS011;4991;43.566;27.820;2022-08-25T10:37:07;23.83;;;5.35;;
9904;SDS011;4991;43.566;27.820;2022-08-25T10:42:30;24.90;;;6.18;;
9904;SDS011;4991;43.566;27.820;2022-08-25T10:45:12;20.92;;;5.47;;
9904;SDS011;4991;43.566;27.820;2022-08-25T10:53:58;25.23;;;6.07;;
9904;SDS011;4991;43.566;27.820;2022-08-25T10:56:40;32.63;;;6.57;;
9904;SDS011;4991;43.566;27.820;2022-08-25T11:02:00;37.45;;;8.65;;
9904;SDS011;4991;43.566;27.820;2022-08-25T11:04:35;39.22;;;11.73;;
9904;SDS011;4991;43.566;27.820;2022-08-25T11:07:08;39.08;;;6.53;;
9904;SDS011;4991;43.566;27.820;2022-08-25T11:09:42;39.35;;;6.75;;
9904;SDS011;4991;43.566;27.820;2022-08-25T11:12:20;29.83;;;6.85;;
9904;SDS011;4991;43.566;27.820;2022-08-25T11:14:58;52.00;;;8.45;;
9904;SDS011;4991;43.566;27.820;2022-08-25T11:20:07;31.10;;;6.68;;
9904;SDS011;4991;43.566;27.820;2022-08-25T11:22:42;34.55;;;6.72;;
9904;SDS011;4991;43.566;27.820;2022-08-25T11:25:16;27.08;;;6.60;;
9904;SDS011;4991;43.566;27.820;2022-08-25T11:27:56;33.05;;;6.70;;
9904;SDS011;4991;43.566;27.820;2022-08-25T11:30:42;37.30;;;6.07;;
9904;SDS011;4991;43.566;27.820;2022-08-25T11:33:12;37.67;;;7.15;;
9904;SDS011;4991;43.566;27.820;2022-08-25T11:35:52;27.95;;;6.47;;
9904;SDS011;4991;43.566;27.820;2022-08-25T11:41:21;37.22;;;6.90;;
9904;SDS011;4991;43.566;27.820;2022-08-25T11:52:39;41.13;;;7.13;;
9904;SDS011;4991;43.566;27.820;2022-08-25T11:55:11;37.08;;;6.20;;
9904;SDS011;4991;43.566;27.820;2022-08-25T11:57:37;33.42;;;6.40;;
9904;SDS011;4991;43.566;27.820;2022-08-25T12:02:51;40.42;;;6.63;;
9904;SDS011;4991;43.566;27.820;2022-08-25T12:10:53;29.77;;;7.10;;
9904;SDS011;4991;43.566;27.820;2022-08-25T12:16:58;29.85;;;6.88;;
9904;SDS011;4991;43.566;27.820;2022-08-25T12:21:50;40.28;;;6.82;;
9904;SDS011;4991;43.566;27.820;2022-08-25T12:24:19;42.33;;;6.95;;
9904;SDS011;4991;43.566;27.820;2022-08-25T12:37:13;44.63;;;7.10;;
9904;SDS011;4991;43.566;27.820;2022-08-25T12:44:48;34.78;;;6.97;;
9904;SDS011;4991;43.566;27.820;2022-08-25T12:47:34;31.20;;;6.32;;
9904;SDS011;4991;43.566;27.820;2022-08-25T12:56:00;49.47;;;21.63;;
9904;SDS011;4991;43.566;27.820;2022-08-25T12:58:50;35.15;;;7.00;;
9904;SDS011;4991;43.566;27.820;2022-08-25T13:13:09;32.97;;;5.85;;
9904;SDS011;4991;43.566;27.820;2022-08-25T13:15:57;48.25;;;7.18;;
9904;SDS011;4991;43.566;27.820;2022-08-25T13:18:28;43.42;;;7.05;;
9904;SDS011;4991;43.566;27.820;2022-08-25T13:23:47;39.63;;;6.90;;
9904;SDS011;4991;43.566;27.820;2022-08-25T13:26:25;25.98;;;7.90;;
9904;SDS011;4991;43.566;27.820;2022-08-25T13:29:11;30.77;;;7.40;;
9904;SDS011;4991;43.566;27.820;2022-08-25T13:31:53;40.88;;;6.95;;
9904;SDS011;4991;43.566;27.820;2022-08-25T13:34:29;27.25;;;6.30;;
9904;SDS011;4991;43.566;27.820;2022-08-25T13:37:04;46.40;;;7.47;;
9904;SDS011;4991;43.566;27.820;2022-08-25T13:39:50;35.58;;;7.03;;
9904;SDS011;4991;43.566;27.820;2022-08-25T13:42:39;40.22;;;11.48;;
9904;SDS011;4991;43.566;27.820;2022-08-25T13:45:07;34.33;;;6.80;;
9904;SDS011;4991;43.566;27.820;2022-08-25T13:47:39;44.10;;;7.60;;
9904;SDS011;4991;43.566;27.820;2022-08-25T13:53:02;40.40;;;6.95;;
9904;SDS011;4991;43.566;27.820;2022-08-25T13:58:12;31.73;;;7.50;;
9904;SDS011;4991;43.566;27.820;2022-08-25T14:00:43;47.22;;;7.53;;
9904;SDS011;4991;43.566;27.820;2022-08-25T14:03:35;40.13;;;7.40;;
9904;SDS011;4991;43.566;27.820;2022-08-25T14:06:25;35.30;;;7.05;;
9904;SDS011;4991;43.566;27.820;2022-08-25T14:11:30;34.60;;;7.43;;
9904;SDS011;4991;43.566;27.820;2022-08-25T14:14:00;38.83;;;7.70;;
9904;SDS011;4991;43.566;27.820;2022-08-25T14:16:37;41.95;;;7.40;;
9904;SDS011;4991;43.566;27.820;2022-08-25T14:19:07;30.75;;;6.45;;
9904;SDS011;4991;43.566;27.820;2022-08-25T14:21:39;44.78;;;7.40;;
9904;SDS011;4991;43.566;27.820;2022-08-25T14:24:05;34.63;;;7.20;;
9904;SDS011;4991;43.566;27.820;2022-08-25T14:26:30;36.78;;;7.15;;
9904;SDS011;4991;43.566;27.820;2022-08-25T14:28:56;36.83;;;6.93;;
9904;SDS011;4991;43.566;27.820;2022-08-25T14:31:24;32.33;;;6.80;;
9904;SDS011;4991;43.566;27.820;2022-08-25T14:33:56;44.83;;;7.68;;
9904;SDS011;4991;43.566;27.820;2022-08-25T14:36:25;35.15;;;6.93;;
9904;SDS011;4991;43.566;27.820;2022-08-25T14:38:53;31.23;;;6.20;;
9904;SDS011;4991;43.566;27.820;2022-08-25T14:41:19;31.67;;;6.10;;
9904;SDS011;4991;43.566;27.820;2022-08-25T14:43:45;36.33;;;7.75;;
9904;SDS011;4991;43.566;27.820;2022-08-25T14:46:17;51.25;;;17.90;;
9904;SDS011;4991;43.566;27.820;2022-08-25T14:48:45;36.90;;;8.30;;
9904;SDS011;4991;43.566;27.820;2022-08-25T14:51:14;47.28;;;8.27;;
9904;SDS011;4991;43.566;27.820;2022-08-25T14:53:41;35.38;;;7.13;;
9904;SDS011;4991;43.566;27.820;2022-08-25T14:56:07;42.85;;;7.65;;
9904;SDS011;4991;43.566;27.820;2022-08-25T14:58:33;41.05;;;7.80;;
9904;SDS011;4991;43.566;27.820;2022-08-25T15:00:59;44.60;;;7.78;;
9904;SDS011;4991;43.566;27.820;2022-08-25T15:03:28;42.90;;;7.82;;
9904;SDS011;4991;43.566;27.820;2022-08-25T15:06:00;30.17;;;6.13;;
9904;SDS011;4991;43.566;27.820;2022-08-25T15:08:26;25.90;;;6.75;;
9904;SDS011;4991;43.566;27.820;2022-08-25T15:11:10;43.75;;;7.47;;
9904;SDS011;4991;43.566;27.820;2022-08-25T15:13:37;38.45;;;6.38;;
9904;SDS011;4991;43.566;27.820;2022-08-25T15:16:03;33.03;;;7.55;;
9904;SDS011;4991;43.566;27.820;2022-08-25T15:18:29;30.67;;;6.13;;
9904;SDS011;4991;43.566;27.820;2022-08-25T15:20:54;43.05;;;7.40;;
9904;SDS011;4991;43.566;27.820;2022-08-25T15:23:21;33.15;;;7.00;;
9904;SDS011;4991;43.566;27.820;2022-08-25T15:25:47;35.13;;;6.70;;
9904;SDS011;4991;43.566;27.820;2022-08-25T15:28:14;34.45;;;8.02;;
9904;SDS011;4991;43.566;27.820;2022-08-25T15:30:41;39.00;;;7.97;;
9904;SDS011;4991;43.566;27.820;2022-08-25T15:33:07;30.75;;;6.63;;
9904;SDS011;4991;43.566;27.820;2022-08-25T15:35:33;29.33;;;6.40;;
9904;SDS011;4991;43.566;27.820;2022-08-25T15:37:59;33.50;;;7.90;;
9904;SDS011;4991;43.566;27.820;2022-08-25T15:40:26;37.28;;;6.90;;
9904;SDS011;4991;43.566;27.820;2022-08-25T15:42:52;32.53;;;6.63;;
9904;SDS011;4991;43.566;27.820;2022-08-25T15:45:17;31.27;;;6.60;;
9904;SDS011;4991;43.566;27.820;2022-08-25T15:47:43;31.38;;;5.93;;
9904;SDS011;4991;43.566;27.820;2022-08-25T15:50:11;32.38;;;7.03;;
9904;SDS011;4991;43.566;27.820;2022-08-25T15:52:40;36.10;;;7.85;;
9904;SDS011;4991;43.566;27.820;2022-08-25T15:55:06;37.50;;;6.97;;
9904;SDS011;4991;43.566;27.820;2022-08-25T15:57:33;31.60;;;6.82;;
9904;SDS011;4991;43.566;27.820;2022-08-25T15:59:59;26.67;;;6.30;;
9904;SDS011;4991;43.566;27.820;2022-08-25T16:02:25;26.30;;;5.82;;
9904;SDS011;4991;43.566;27.820;2022-08-25T16:04:51;23.05;;;5.40;;
9904;SDS011;4991;43.566;27.820;2022-08-25T16:07:18;30.00;;;6.40;;
9904;SDS011;4991;43.566;27.820;2022-08-25T16:09:45;32.67;;;6.07;;
9904;SDS011;4991;43.566;27.820;2022-08-25T16:12:11;25.60;;;5.60;;
9904;SDS011;4991;43.566;27.820;2022-08-25T16:14:37;29.73;;;6.18;;
9904;SDS011;4991;43.566;27.820;2022-08-25T16:17:03;33.25;;;6.68;;
9904;SDS011;4991;43.566;27.820;2022-08-25T16:19:30;26.38;;;5.82;;
9904;SDS011;4991;43.566;27.820;2022-08-25T16:21:56;31.33;;;6.70;;
9904;SDS011;4991;43.566;27.820;2022-08-25T16:24:22;24.02;;;6.93;;
9904;SDS011;4991;43.566;27.820;2022-08-25T16:26:49;36.38;;;6.43;;
9904;SDS011;4991;43.566;27.820;2022-08-25T16:29:16;35.60;;;6.78;;
9904;SDS011;4991;43.566;27.820;2022-08-25T16:31:42;25.13;;;5.75;;
9904;SDS011;4991;43.566;27.820;2022-08-25T16:34:09;21.10;;;6.07;;
9904;SDS011;4991;43.566;27.820;2022-08-25T16:36:36;32.17;;;7.80;;
9904;SDS011;4991;43.566;27.820;2022-08-25T16:39:03;27.05;;;5.80;;
9904;SDS011;4991;43.566;27.820;2022-08-25T16:41:29;33.83;;;14.90;;
9904;SDS011;4991;43.566;27.820;2022-08-25T16:43:59;22.27;;;5.95;;
9904;SDS011;4991;43.566;27.820;2022-08-25T16:46:25;30.30;;;8.43;;
9904;SDS011;4991;43.566;27.820;2022-08-25T16:48:53;30.70;;;6.35;;
9904;SDS011;4991;43.566;27.820;2022-08-25T16:51:20;25.20;;;6.32;;
9904;SDS011;4991;43.566;27.820;2022-08-25T16:53:46;22.13;;;5.28;;
9904;SDS011;4991;43.566;27.820;2022-08-25T16:56:32;22.27;;;5.43;;
9904;SDS011;4991;43.566;27.820;2022-08-25T16:58:59;24.30;;;5.85;;
9904;SDS011;4991;43.566;27.820;2022-08-25T17:01:27;20.80;;;5.82;;
9904;SDS011;4991;43.566;27.820;2022-08-25T17:03:56;26.15;;;6.22;;
9904;SDS011;4991;43.566;27.820;2022-08-25T17:06:24;24.45;;;6.18;;